sensor_id;sensor_type;location;lat;lon;timestamp;temperature;humidity
7900;DHT22;3995;50.856;4.404;2022-12-20T00:02:10;11.70;64.80
7900;DHT22;3995;50.856;4.404;2022-12-20T00:04:38;11.70;64.70
7900;DHT22;3995;50.856;4.404;2022-12-20T00:07:05;11.70;64.70
7900;DHT22;3995;50.856;4.404;2022-12-20T00:09:34;11.70;64.70
7900;DHT22;3995;50.856;4.404;2022-12-20T00:12:01;11.80;65.10
7900;DHT22;3995;50.856;4.404;2022-12-20T00:14:29;11.70;65.00
7900;DHT22;3995;50.856;4.404;2022-12-20T00:16:56;11.80;65.30
7900;DHT22;3995;50.856;4.404;2022-12-20T00:19:23;11.80;65.60
7900;DHT22;3995;50.856;4.404;2022-12-20T00:21:51;11.80;65.70
7900;DHT22;3995;50.856;4.404;2022-12-20T00:24:18;11.80;65.90
7900;DHT22;3995;50.856;4.404;2022-12-20T00:26:47;11.80;65.90
7900;DHT22;3995;50.856;4.404;2022-12-20T00:29:14;11.80;65.90
7900;DHT22;3995;50.856;4.404;2022-12-20T00:31:41;11.80;65.70
7900;DHT22;3995;50.856;4.404;2022-12-20T00:34:08;11.80;65.70
7900;DHT22;3995;50.856;4.404;2022-12-20T00:36:35;11.80;65.90
7900;DHT22;3995;50.856;4.404;2022-12-20T00:39:05;11.80;66.10
7900;DHT22;3995;50.856;4.404;2022-12-20T00:41:34;11.80;66.30
7900;DHT22;3995;50.856;4.404;2022-12-20T00:44:03;11.80;66.40
7900;DHT22;3995;50.856;4.404;2022-12-20T00:46:30;11.90;66.60
7900;DHT22;3995;50.856;4.404;2022-12-20T00:48:59;11.90;66.30
7900;DHT22;3995;50.856;4.404;2022-12-20T00:51:28;11.90;66.00
7900;DHT22;3995;50.856;4.404;2022-12-20T00:53:57;11.90;66.20
7900;DHT22;3995;50.856;4.404;2022-12-20T00:56:24;11.90;66.40
7900;DHT22;3995;50.856;4.404;2022-12-20T00:58:52;11.90;66.40
7900;DHT22;3995;50.856;4.404;2022-12-20T01:01:22;11.90;66.40
7900;DHT22;3995;50.856;4.404;2022-12-20T01:03:50;11.90;66.40
7900;DHT22;3995;50.856;4.404;2022-12-20T01:06:19;11.90;66.40
7900;DHT22;3995;50.856;4.404;2022-12-20T01:08:46;12.00;66.70
7900;DHT22;3995;50.856;4.404;2022-12-20T01:11:15;12.00;66.70
7900;DHT22;3995;50.856;4.404;2022-12-20T01:13:44;12.00;66.70
7900;DHT22;3995;50.856;4.404;2022-12-20T01:16:13;12.00;66.50
7900;DHT22;3995;50.856;4.404;2022-12-20T01:18:42;12.00;66.70
7900;DHT22;3995;50.856;4.404;2022-12-20T01:21:11;12.10;66.80
7900;DHT22;3995;50.856;4.404;2022-12-20T01:23:40;12.00;66.80
7900;DHT22;3995;50.856;4.404;2022-12-20T01:26:12;12.00;66.70
7900;DHT22;3995;50.856;4.404;2022-12-20T01:28:41;12.00;66.70
7900;DHT22;3995;50.856;4.404;2022-12-20T01:31:10;12.00;66.70
7900;DHT22;3995;50.856;4.404;2022-12-20T01:33:38;12.00;66.70
7900;DHT22;3995;50.856;4.404;2022-12-20T01:36:10;12.00;66.80
7900;DHT22;3995;50.856;4.404;2022-12-20T01:38:38;12.00;66.80
7900;DHT22;3995;50.856;4.404;2022-12-20T01:41:06;12.00;66.80
7900;DHT22;3995;50.856;4.404;2022-12-20T01:43:49;12.00;66.90
7900;DHT22;3995;50.856;4.404;2022-12-20T01:46:17;12.10;66.90
7900;DHT22;3995;50.856;4.404;2022-12-20T01:48:49;12.10;67.00
7900;DHT22;3995;50.856;4.404;2022-12-20T01:51:18;12.10;67.10
7900;DHT22;3995;50.856;4.404;2022-12-20T01:53:48;12.10;67.00
7900;DHT22;3995;50.856;4.404;2022-12-20T01:56:17;12.10;67.10
7900;DHT22;3995;50.856;4.404;2022-12-20T01:58:47;12.10;67.30
7900;DHT22;3995;50.856;4.404;2022-12-20T02:01:15;12.10;67.20
7900;DHT22;3995;50.856;4.404;2022-12-20T02:03:42;12.10;67.30
7900;DHT22;3995;50.856;4.404;2022-12-20T02:06:16;12.10;67.40
7900;DHT22;3995;50.856;4.404;2022-12-20T02:08:46;12.10;67.50
7900;DHT22;3995;50.856;4.404;2022-12-20T02:11:25;12.10;67.60
7900;DHT22;3995;50.856;4.404;2022-12-20T02:14:02;12.10;67.50
7900;DHT22;3995;50.856;4.404;2022-12-20T02:16:38;12.10;67.60
7900;DHT22;3995;50.856;4.404;2022-12-20T02:19:13;12.00;67.60
7900;DHT22;3995;50.856;4.404;2022-12-20T02:21:48;12.00;67.60
7900;DHT22;3995;50.856;4.404;2022-12-20T02:24:40;12.10;67.80
7900;DHT22;3995;50.856;4.404;2022-12-20T02:27:34;12.10;67.70
7900;DHT22;3995;50.856;4.404;2022-12-20T02:30:13;12.10;67.60
7900;DHT22;3995;50.856;4.404;2022-12-20T02:32:49;12.10;67.80
7900;DHT22;3995;50.856;4.404;2022-12-20T02:35:21;12.10;67.80
7900;DHT22;3995;50.856;4.404;2022-12-20T02:37:50;12.00;67.80
7900;DHT22;3995;50.856;4.404;2022-12-20T02:40:21;12.10;67.70
7900;DHT22;3995;50.856;4.404;2022-12-20T02:42:51;12.10;67.50
7900;DHT22;3995;50.856;4.404;2022-12-20T02:45:22;12.10;67.40
7900;DHT22;3995;50.856;4.404;2022-12-20T02:47:53;12.10;67.40
7900;DHT22;3995;50.856;4.404;2022-12-20T02:50:23;12.10;67.40
7900;DHT22;3995;50.856;4.404;2022-12-20T02:52:53;12.10;67.40
7900;DHT22;3995;50.856;4.404;2022-12-20T02:55:30;12.10;67.50
7900;DHT22;3995;50.856;4.404;2022-12-20T02:58:04;12.10;67.60
7900;DHT22;3995;50.856;4.404;2022-12-20T03:00:39;12.10;67.60
7900;DHT22;3995;50.856;4.404;2022-12-20T03:03:08;12.10;67.60
7900;DHT22;3995;50.856;4.404;2022-12-20T03:05:50;12.10;67.70
7900;DHT22;3995;50.856;4.404;2022-12-20T03:08:18;12.10;67.70
7900;DHT22;3995;50.856;4.404;2022-12-20T03:10:45;12.10;67.60
7900;DHT22;3995;50.856;4.404;2022-12-20T03:13:12;12.10;67.60
7900;DHT22;3995;50.856;4.404;2022-12-20T03:15:41;12.10;67.70
7900;DHT22;3995;50.856;4.404;2022-12-20T03:18:08;12.20;67.80
7900;DHT22;3995;50.856;4.404;2022-12-20T03:20:36;12.20;67.80
7900;DHT22;3995;50.856;4.404;2022-12-20T03:23:03;12.20;67.70
7900;DHT22;3995;50.856;4.404;2022-12-20T03:25:31;12.20;68.30
7900;DHT22;3995;50.856;4.404;2022-12-20T03:27:58;12.20;67.70
7900;DHT22;3995;50.856;4.404;2022-12-20T03:30:25;12.20;67.70
7900;DHT22;3995;50.856;4.404;2022-12-20T03:32:54;12.20;67.70
7900;DHT22;3995;50.856;4.404;2022-12-20T03:35:21;12.20;67.60
7900;DHT22;3995;50.856;4.404;2022-12-20T03:37:48;12.20;67.40
7900;DHT22;3995;50.856;4.404;2022-12-20T03:40:15;12.20;67.50
7900;DHT22;3995;50.856;4.404;2022-12-20T03:42:43;12.20;67.60
7900;DHT22;3995;50.856;4.404;2022-12-20T03:45:10;12.20;67.60
7900;DHT22;3995;50.856;4.404;2022-12-20T03:47:37;12.20;67.70
7900;DHT22;3995;50.856;4.404;2022-12-20T03:50:07;12.20;67.90
7900;DHT22;3995;50.856;4.404;2022-12-20T03:52:34;12.20;68.10
7900;DHT22;3995;50.856;4.404;2022-12-20T03:55:02;12.20;68.20
7900;DHT22;3995;50.856;4.404;2022-12-20T03:57:29;12.20;68.30
7900;DHT22;3995;50.856;4.404;2022-12-20T03:59:56;12.20;68.40
7900;DHT22;3995;50.856;4.404;2022-12-20T04:02:24;12.20;69.30
7900;DHT22;3995;50.856;4.404;2022-12-20T04:04:51;12.20;68.60
7900;DHT22;3995;50.856;4.404;2022-12-20T04:07:21;12.20;68.60
7900;DHT22;3995;50.856;4.404;2022-12-20T04:09:47;12.20;68.80
7900;DHT22;3995;50.856;4.404;2022-12-20T04:12:15;12.20;68.90
7900;DHT22;3995;50.856;4.404;2022-12-20T04:14:42;12.20;69.00
7900;DHT22;3995;50.856;4.404;2022-12-20T04:17:09;12.20;69.10
7900;DHT22;3995;50.856;4.404;2022-12-20T04:19:36;12.20;69.10
7900;DHT22;3995;50.856;4.404;2022-12-20T04:22:03;12.30;69.20
7900;DHT22;3995;50.856;4.404;2022-12-20T04:24:32;12.20;69.00
7900;DHT22;3995;50.856;4.404;2022-12-20T04:26:59;12.20;69.00
7900;DHT22;3995;50.856;4.404;2022-12-20T04:29:27;12.20;68.90
7900;DHT22;3995;50.856;4.404;2022-12-20T04:31:54;12.20;68.90
7900;DHT22;3995;50.856;4.404;2022-12-20T04:34:24;12.20;68.90
7900;DHT22;3995;50.856;4.404;2022-12-20T04:36:52;12.30;68.90
7900;DHT22;3995;50.856;4.404;2022-12-20T04:39:20;12.30;68.90
7900;DHT22;3995;50.856;4.404;2022-12-20T04:41:49;12.30;68.90
7900;DHT22;3995;50.856;4.404;2022-12-20T04:44:16;12.20;68.60
7900;DHT22;3995;50.856;4.404;2022-12-20T04:46:43;12.20;68.60
7900;DHT22;3995;50.856;4.404;2022-12-20T04:49:11;12.20;68.40
7900;DHT22;3995;50.856;4.404;2022-12-20T04:51:38;12.20;68.30
7900;DHT22;3995;50.856;4.404;2022-12-20T04:54:05;12.20;68.10
7900;DHT22;3995;50.856;4.404;2022-12-20T04:56:31;12.30;68.10
7900;DHT22;3995;50.856;4.404;2022-12-20T04:59:00;12.20;67.90
7900;DHT22;3995;50.856;4.404;2022-12-20T05:01:28;12.20;67.80
7900;DHT22;3995;50.856;4.404;2022-12-20T05:03:56;12.20;67.60
7900;DHT22;3995;50.856;4.404;2022-12-20T05:06:23;12.30;67.50
7900;DHT22;3995;50.856;4.404;2022-12-20T05:08:50;12.20;67.30
7900;DHT22;3995;50.856;4.404;2022-12-20T05:11:22;12.30;67.30
7900;DHT22;3995;50.856;4.404;2022-12-20T05:13:49;12.20;67.20
7900;DHT22;3995;50.856;4.404;2022-12-20T05:16:19;12.20;67.10
7900;DHT22;3995;50.856;4.404;2022-12-20T05:18:46;12.20;67.00
7900;DHT22;3995;50.856;4.404;2022-12-20T05:21:13;12.20;66.90
7900;DHT22;3995;50.856;4.404;2022-12-20T05:23:58;12.30;66.90
7900;DHT22;3995;50.856;4.404;2022-12-20T05:26:42;12.20;66.80
7900;DHT22;3995;50.856;4.404;2022-12-20T05:29:10;12.20;66.70
7900;DHT22;3995;50.856;4.404;2022-12-20T05:31:38;12.30;66.70
7900;DHT22;3995;50.856;4.404;2022-12-20T05:34:06;12.30;66.50
7900;DHT22;3995;50.856;4.404;2022-12-20T05:36:33;12.30;66.50
7900;DHT22;3995;50.856;4.404;2022-12-20T05:39:01;12.20;66.30
7900;DHT22;3995;50.856;4.404;2022-12-20T05:41:27;12.30;66.30
7900;DHT22;3995;50.856;4.404;2022-12-20T05:43:55;12.30;66.20
7900;DHT22;3995;50.856;4.404;2022-12-20T05:46:22;12.30;66.10
7900;DHT22;3995;50.856;4.404;2022-12-20T05:48:52;12.30;66.10
7900;DHT22;3995;50.856;4.404;2022-12-20T05:51:19;12.30;66.00
7900;DHT22;3995;50.856;4.404;2022-12-20T05:53:47;12.30;66.00
7900;DHT22;3995;50.856;4.404;2022-12-20T05:56:14;12.30;65.90
7900;DHT22;3995;50.856;4.404;2022-12-20T05:58:41;12.30;65.90
7900;DHT22;3995;50.856;4.404;2022-12-20T06:01:08;12.30;65.80
7900;DHT22;3995;50.856;4.404;2022-12-20T06:03:36;12.30;65.70
7900;DHT22;3995;50.856;4.404;2022-12-20T06:06:05;12.30;65.70
7900;DHT22;3995;50.856;4.404;2022-12-20T06:08:33;12.30;65.50
7900;DHT22;3995;50.856;4.404;2022-12-20T06:11:00;12.30;65.50
7900;DHT22;3995;50.856;4.404;2022-12-20T06:13:31;12.30;65.50
7900;DHT22;3995;50.856;4.404;2022-12-20T06:15:59;12.30;65.40
7900;DHT22;3995;50.856;4.404;2022-12-20T06:18:26;12.30;65.40
7900;DHT22;3995;50.856;4.404;2022-12-20T06:20:53;12.30;65.30
7900;DHT22;3995;50.856;4.404;2022-12-20T06:23:22;12.30;65.20
7900;DHT22;3995;50.856;4.404;2022-12-20T06:25:50;12.40;65.20
7900;DHT22;3995;50.856;4.404;2022-12-20T06:28:18;12.30;65.10
7900;DHT22;3995;50.856;4.404;2022-12-20T06:30:51;12.30;65.10
7900;DHT22;3995;50.856;4.404;2022-12-20T06:33:19;12.40;65.10
7900;DHT22;3995;50.856;4.404;2022-12-20T06:35:46;12.30;65.00
7900;DHT22;3995;50.856;4.404;2022-12-20T06:38:15;12.30;65.00
7900;DHT22;3995;50.856;4.404;2022-12-20T06:40:44;12.30;65.60
7900;DHT22;3995;50.856;4.404;2022-12-20T06:43:11;12.30;65.00
7900;DHT22;3995;50.856;4.404;2022-12-20T06:45:39;12.40;65.10
7900;DHT22;3995;50.856;4.404;2022-12-20T06:48:06;12.40;65.10
7900;DHT22;3995;50.856;4.404;2022-12-20T06:50:36;12.30;64.90
7900;DHT22;3995;50.856;4.404;2022-12-20T06:53:03;12.40;65.00
7900;DHT22;3995;50.856;4.404;2022-12-20T06:55:31;12.40;65.00
7900;DHT22;3995;50.856;4.404;2022-12-20T06:58:00;12.40;64.90
7900;DHT22;3995;50.856;4.404;2022-12-20T07:00:27;12.40;64.90
7900;DHT22;3995;50.856;4.404;2022-12-20T07:02:54;12.40;65.00
7900;DHT22;3995;50.856;4.404;2022-12-20T07:05:21;12.40;65.00
7900;DHT22;3995;50.856;4.404;2022-12-20T07:07:48;12.40;65.20
7900;DHT22;3995;50.856;4.404;2022-12-20T07:10:16;12.40;65.50
7900;DHT22;3995;50.856;4.404;2022-12-20T07:12:43;12.40;65.60
7900;DHT22;3995;50.856;4.404;2022-12-20T07:15:12;12.40;65.70
7900;DHT22;3995;50.856;4.404;2022-12-20T07:17:39;12.40;65.90
7900;DHT22;3995;50.856;4.404;2022-12-20T07:20:07;12.40;66.00
7900;DHT22;3995;50.856;4.404;2022-12-20T07:22:35;12.40;66.20
7900;DHT22;3995;50.856;4.404;2022-12-20T07:25:02;12.40;66.60
7900;DHT22;3995;50.856;4.404;2022-12-20T07:27:29;12.40;66.70
7900;DHT22;3995;50.856;4.404;2022-12-20T07:29:57;12.40;66.60
7900;DHT22;3995;50.856;4.404;2022-12-20T07:32:26;12.40;66.80
7900;DHT22;3995;50.856;4.404;2022-12-20T07:34:54;12.40;67.00
7900;DHT22;3995;50.856;4.404;2022-12-20T07:37:22;12.40;67.30
7900;DHT22;3995;50.856;4.404;2022-12-20T07:39:49;12.40;67.40
7900;DHT22;3995;50.856;4.404;2022-12-20T07:42:16;12.40;67.60
7900;DHT22;3995;50.856;4.404;2022-12-20T07:44:43;12.40;68.00
7900;DHT22;3995;50.856;4.404;2022-12-20T07:47:12;12.40;68.00
7900;DHT22;3995;50.856;4.404;2022-12-20T07:49:40;12.40;68.40
7900;DHT22;3995;50.856;4.404;2022-12-20T07:52:08;12.40;68.40
7900;DHT22;3995;50.856;4.404;2022-12-20T07:54:41;12.40;68.50
7900;DHT22;3995;50.856;4.404;2022-12-20T07:57:12;12.40;68.80
7900;DHT22;3995;50.856;4.404;2022-12-20T07:59:45;12.40;69.10
7900;DHT22;3995;50.856;4.404;2022-12-20T08:02:16;12.30;69.10
7900;DHT22;3995;50.856;4.404;2022-12-20T08:04:47;12.30;69.30
7900;DHT22;3995;50.856;4.404;2022-12-20T08:07:15;12.30;69.10
7900;DHT22;3995;50.856;4.404;2022-12-20T08:09:43;12.30;69.10
7900;DHT22;3995;50.856;4.404;2022-12-20T08:12:13;12.30;69.30
7900;DHT22;3995;50.856;4.404;2022-12-20T08:14:41;12.30;69.70
7900;DHT22;3995;50.856;4.404;2022-12-20T08:17:09;12.30;69.90
7900;DHT22;3995;50.856;4.404;2022-12-20T08:19:36;12.30;70.00
7900;DHT22;3995;50.856;4.404;2022-12-20T08:22:05;12.30;70.20
7900;DHT22;3995;50.856;4.404;2022-12-20T08:24:32;12.30;70.20
7900;DHT22;3995;50.856;4.404;2022-12-20T08:27:00;12.30;70.40
7900;DHT22;3995;50.856;4.404;2022-12-20T08:29:28;12.30;70.40
7900;DHT22;3995;50.856;4.404;2022-12-20T08:31:55;12.30;70.50
7900;DHT22;3995;50.856;4.404;2022-12-20T08:34:22;12.30;70.40
7900;DHT22;3995;50.856;4.404;2022-12-20T08:36:50;12.30;70.40
7900;DHT22;3995;50.856;4.404;2022-12-20T08:39:19;12.30;70.40
7900;DHT22;3995;50.856;4.404;2022-12-20T08:41:46;12.30;70.50
7900;DHT22;3995;50.856;4.404;2022-12-20T08:44:22;12.30;70.50
7900;DHT22;3995;50.856;4.404;2022-12-20T08:46:49;12.30;70.60
7900;DHT22;3995;50.856;4.404;2022-12-20T08:49:16;12.40;70.60
7900;DHT22;3995;50.856;4.404;2022-12-20T08:51:43;12.40;70.80
7900;DHT22;3995;50.856;4.404;2022-12-20T08:54:11;12.40;70.50
7900;DHT22;3995;50.856;4.404;2022-12-20T08:56:39;12.30;70.40
7900;DHT22;3995;50.856;4.404;2022-12-20T08:59:07;12.40;70.50
7900;DHT22;3995;50.856;4.404;2022-12-20T09:01:34;12.30;70.40
7900;DHT22;3995;50.856;4.404;2022-12-20T09:04:03;12.40;70.50
7900;DHT22;3995;50.856;4.404;2022-12-20T09:06:30;12.40;70.60
7900;DHT22;3995;50.856;4.404;2022-12-20T09:08:58;12.40;70.80
7900;DHT22;3995;50.856;4.404;2022-12-20T09:11:26;12.40;70.90
7900;DHT22;3995;50.856;4.404;2022-12-20T09:13:56;12.40;70.90
7900;DHT22;3995;50.856;4.404;2022-12-20T09:16:26;12.40;70.90
7900;DHT22;3995;50.856;4.404;2022-12-20T09:18:55;12.40;71.10
7900;DHT22;3995;50.856;4.404;2022-12-20T09:21:23;12.40;71.20
7900;DHT22;3995;50.856;4.404;2022-12-20T09:23:51;12.40;71.40
7900;DHT22;3995;50.856;4.404;2022-12-20T09:26:19;12.40;71.90
7900;DHT22;3995;50.856;4.404;2022-12-20T09:28:48;12.40;71.30
7900;DHT22;3995;50.856;4.404;2022-12-20T09:31:18;12.40;71.30
7900;DHT22;3995;50.856;4.404;2022-12-20T09:33:46;12.50;71.50
7900;DHT22;3995;50.856;4.404;2022-12-20T09:36:15;12.50;71.60
7900;DHT22;3995;50.856;4.404;2022-12-20T09:38:43;12.50;71.70
7900;DHT22;3995;50.856;4.404;2022-12-20T09:41:28;12.50;71.70
7900;DHT22;3995;50.856;4.404;2022-12-20T09:43:57;12.50;71.50
7900;DHT22;3995;50.856;4.404;2022-12-20T09:46:28;12.50;71.60
7900;DHT22;3995;50.856;4.404;2022-12-20T09:48:56;12.50;71.60
7900;DHT22;3995;50.856;4.404;2022-12-20T09:51:36;12.50;71.70
7900;DHT22;3995;50.856;4.404;2022-12-20T09:54:18;12.50;71.70
7900;DHT22;3995;50.856;4.404;2022-12-20T09:56:54;12.50;71.70
7900;DHT22;3995;50.856;4.404;2022-12-20T09:59:23;12.50;71.60
7900;DHT22;3995;50.856;4.404;2022-12-20T10:01:53;12.50;71.80
7900;DHT22;3995;50.856;4.404;2022-12-20T10:04:21;12.50;71.80
7900;DHT22;3995;50.856;4.404;2022-12-20T10:07:06;12.50;71.80
7900;DHT22;3995;50.856;4.404;2022-12-20T10:09:54;12.60;72.00
7900;DHT22;3995;50.856;4.404;2022-12-20T10:12:32;12.50;72.00
7900;DHT22;3995;50.856;4.404;2022-12-20T10:15:18;12.50;72.20
7900;DHT22;3995;50.856;4.404;2022-12-20T10:20:50;12.50;72.20
7900;DHT22;3995;50.856;4.404;2022-12-20T10:23:22;12.50;72.50
7900;DHT22;3995;50.856;4.404;2022-12-20T10:25:53;12.50;72.60
7900;DHT22;3995;50.856;4.404;2022-12-20T10:28:25;12.50;72.30
7900;DHT22;3995;50.856;4.404;2022-12-20T10:30:53;12.50;72.30
7900;DHT22;3995;50.856;4.404;2022-12-20T10:33:23;12.50;72.50
7900;DHT22;3995;50.856;4.404;2022-12-20T10:35:51;12.50;72.20
7900;DHT22;3995;50.856;4.404;2022-12-20T10:38:19;12.50;72.40
7900;DHT22;3995;50.856;4.404;2022-12-20T10:40:59;12.50;72.50
7900;DHT22;3995;50.856;4.404;2022-12-20T10:43:27;12.60;72.50
7900;DHT22;3995;50.856;4.404;2022-12-20T10:46:02;12.50;72.60
7900;DHT22;3995;50.856;4.404;2022-12-20T10:48:34;12.50;72.60
7900;DHT22;3995;50.856;4.404;2022-12-20T10:51:11;12.50;72.50
7900;DHT22;3995;50.856;4.404;2022-12-20T10:53:54;12.50;72.20
7900;DHT22;3995;50.856;4.404;2022-12-20T10:56:24;12.60;72.30
7900;DHT22;3995;50.856;4.404;2022-12-20T10:58:57;12.50;72.20
7900;DHT22;3995;50.856;4.404;2022-12-20T11:01:28;12.50;72.20
7900;DHT22;3995;50.856;4.404;2022-12-20T11:04:05;12.50;72.40
7900;DHT22;3995;50.856;4.404;2022-12-20T11:06:43;12.50;73.10
7900;DHT22;3995;50.856;4.404;2022-12-20T11:09:24;12.50;72.70
7900;DHT22;3995;50.856;4.404;2022-12-20T11:12:04;12.50;72.60
7900;DHT22;3995;50.856;4.404;2022-12-20T11:14:34;12.50;72.70
7900;DHT22;3995;50.856;4.404;2022-12-20T11:17:04;12.50;72.90
7900;DHT22;3995;50.856;4.404;2022-12-20T11:22:42;12.60;72.40
7900;DHT22;3995;50.856;4.404;2022-12-20T11:25:31;12.50;72.80
7900;DHT22;3995;50.856;4.404;2022-12-20T11:28:18;12.50;72.80
7900;DHT22;3995;50.856;4.404;2022-12-20T11:30:53;12.50;72.60
7900;DHT22;3995;50.856;4.404;2022-12-20T11:33:40;12.50;72.90
7900;DHT22;3995;50.856;4.404;2022-12-20T11:36:19;12.50;73.10
7900;DHT22;3995;50.856;4.404;2022-12-20T11:38:51;12.50;73.10
7900;DHT22;3995;50.856;4.404;2022-12-20T11:41:27;12.50;73.20
7900;DHT22;3995;50.856;4.404;2022-12-20T11:44:05;12.50;73.40
7900;DHT22;3995;50.856;4.404;2022-12-20T11:46:51;12.50;73.50
7900;DHT22;3995;50.856;4.404;2022-12-20T11:49:40;12.50;73.50
7900;DHT22;3995;50.856;4.404;2022-12-20T11:52:18;12.50;73.50
7900;DHT22;3995;50.856;4.404;2022-12-20T11:54:55;12.50;73.60
7900;DHT22;3995;50.856;4.404;2022-12-20T11:57:29;12.50;73.70
7900;DHT22;3995;50.856;4.404;2022-12-20T12:00:00;12.50;73.60
7900;DHT22;3995;50.856;4.404;2022-12-20T12:02:32;12.50;73.60
7900;DHT22;3995;50.856;4.404;2022-12-20T12:05:06;12.50;73.60
7900;DHT22;3995;50.856;4.404;2022-12-20T12:07:36;12.50;73.80
7900;DHT22;3995;50.856;4.404;2022-12-20T12:10:15;12.50;73.80
7900;DHT22;3995;50.856;4.404;2022-12-20T12:12:45;12.50;73.60
7900;DHT22;3995;50.856;4.404;2022-12-20T12:15:21;12.50;73.80
7900;DHT22;3995;50.856;4.404;2022-12-20T12:17:57;12.50;73.80
7900;DHT22;3995;50.856;4.404;2022-12-20T12:20:34;12.50;73.80
7900;DHT22;3995;50.856;4.404;2022-12-20T12:23:06;12.50;73.90
7900;DHT22;3995;50.856;4.404;2022-12-20T12:25:38;12.50;74.00
7900;DHT22;3995;50.856;4.404;2022-12-20T12:28:05;12.50;74.10
7900;DHT22;3995;50.856;4.404;2022-12-20T12:30:37;12.50;74.10
7900;DHT22;3995;50.856;4.404;2022-12-20T12:33:11;12.50;74.20
7900;DHT22;3995;50.856;4.404;2022-12-20T12:42:33;12.50;74.10
7900;DHT22;3995;50.856;4.404;2022-12-20T12:45:14;12.50;73.70
7900;DHT22;3995;50.856;4.404;2022-12-20T12:47:46;12.40;74.40
7900;DHT22;3995;50.856;4.404;2022-12-20T12:50:22;12.40;73.70
7900;DHT22;3995;50.856;4.404;2022-12-20T12:52:52;12.50;73.80
7900;DHT22;3995;50.856;4.404;2022-12-20T12:55:42;12.40;73.70
7900;DHT22;3995;50.856;4.404;2022-12-20T12:58:34;12.50;73.70
7900;DHT22;3995;50.856;4.404;2022-12-20T13:01:04;12.40;73.70
7900;DHT22;3995;50.856;4.404;2022-12-20T13:03:39;12.40;74.10
7900;DHT22;3995;50.856;4.404;2022-12-20T13:09:20;12.50;73.80
7900;DHT22;3995;50.856;4.404;2022-12-20T13:11:48;12.40;73.90
7900;DHT22;3995;50.856;4.404;2022-12-20T13:14:50;12.40;74.00
7900;DHT22;3995;50.856;4.404;2022-12-20T13:17:47;12.40;73.70
7900;DHT22;3995;50.856;4.404;2022-12-20T13:20:19;12.40;73.80
7900;DHT22;3995;50.856;4.404;2022-12-20T13:23:11;12.30;74.00
7900;DHT22;3995;50.856;4.404;2022-12-20T13:25:43;12.40;73.90
7900;DHT22;3995;50.856;4.404;2022-12-20T13:28:42;12.40;74.10
7900;DHT22;3995;50.856;4.404;2022-12-20T13:31:31;12.40;74.00
7900;DHT22;3995;50.856;4.404;2022-12-20T13:34:00;12.40;74.00
7900;DHT22;3995;50.856;4.404;2022-12-20T13:36:32;12.30;74.10
7900;DHT22;3995;50.856;4.404;2022-12-20T13:39:02;12.40;74.30
7900;DHT22;3995;50.856;4.404;2022-12-20T13:41:42;12.40;74.40
7900;DHT22;3995;50.856;4.404;2022-12-20T13:44:42;12.40;74.30
7900;DHT22;3995;50.856;4.404;2022-12-20T13:47:33;12.40;74.20
7900;DHT22;3995;50.856;4.404;2022-12-20T13:50:21;12.40;74.30
7900;DHT22;3995;50.856;4.404;2022-12-20T13:52:50;12.40;74.30
7900;DHT22;3995;50.856;4.404;2022-12-20T13:55:29;12.40;74.60
7900;DHT22;3995;50.856;4.404;2022-12-20T13:57:57;12.40;74.50
7900;DHT22;3995;50.856;4.404;2022-12-20T14:00:29;12.40;74.70
7900;DHT22;3995;50.856;4.404;2022-12-20T14:03:00;12.40;74.90
7900;DHT22;3995;50.856;4.404;2022-12-20T14:05:31;12.40;75.50
7900;DHT22;3995;50.856;4.404;2022-12-20T14:08:01;12.40;74.80
7900;DHT22;3995;50.856;4.404;2022-12-20T14:10:31;12.40;75.00
7900;DHT22;3995;50.856;4.404;2022-12-20T14:13:00;12.40;75.10
7900;DHT22;3995;50.856;4.404;2022-12-20T14:15:29;12.40;75.20
7900;DHT22;3995;50.856;4.404;2022-12-20T14:18:04;12.50;75.40
7900;DHT22;3995;50.856;4.404;2022-12-20T14:20:33;12.50;75.40
7900;DHT22;3995;50.856;4.404;2022-12-20T14:23:02;12.40;75.40
7900;DHT22;3995;50.856;4.404;2022-12-20T14:25:35;12.50;75.60
7900;DHT22;3995;50.856;4.404;2022-12-20T14:28:03;12.50;75.50
7900;DHT22;3995;50.856;4.404;2022-12-20T14:30:34;12.50;75.60
7900;DHT22;3995;50.856;4.404;2022-12-20T14:33:03;12.50;75.60
7900;DHT22;3995;50.856;4.404;2022-12-20T14:35:31;12.50;75.70
7900;DHT22;3995;50.856;4.404;2022-12-20T14:38:00;12.50;75.80
7900;DHT22;3995;50.856;4.404;2022-12-20T14:40:29;12.50;75.70
7900;DHT22;3995;50.856;4.404;2022-12-20T14:42:56;12.50;75.70
7900;DHT22;3995;50.856;4.404;2022-12-20T14:45:25;12.50;75.60
7900;DHT22;3995;50.856;4.404;2022-12-20T14:47:56;12.50;75.60
7900;DHT22;3995;50.856;4.404;2022-12-20T14:50:29;12.50;75.70
7900;DHT22;3995;50.856;4.404;2022-12-20T14:52:57;12.50;75.60
7900;DHT22;3995;50.856;4.404;2022-12-20T14:55:30;12.50;75.70
7900;DHT22;3995;50.856;4.404;2022-12-20T14:57:58;12.50;75.70
7900;DHT22;3995;50.856;4.404;2022-12-20T15:00:27;12.50;76.50
7900;DHT22;3995;50.856;4.404;2022-12-20T15:03:00;12.50;75.70
7900;DHT22;3995;50.856;4.404;2022-12-20T15:05:47;12.50;75.70
7900;DHT22;3995;50.856;4.404;2022-12-20T15:08:17;12.50;75.60
7900;DHT22;3995;50.856;4.404;2022-12-20T15:10:52;12.50;75.70
7900;DHT22;3995;50.856;4.404;2022-12-20T15:13:21;12.50;75.70
7900;DHT22;3995;50.856;4.404;2022-12-20T15:15:48;12.50;75.70
7900;DHT22;3995;50.856;4.404;2022-12-20T15:18:16;12.50;75.80
7900;DHT22;3995;50.856;4.404;2022-12-20T15:20:49;12.50;75.80
7900;DHT22;3995;50.856;4.404;2022-12-20T15:23:19;12.50;75.80
7900;DHT22;3995;50.856;4.404;2022-12-20T15:25:47;12.50;75.90
7900;DHT22;3995;50.856;4.404;2022-12-20T15:28:16;12.50;75.90
7900;DHT22;3995;50.856;4.404;2022-12-20T15:30:43;12.50;76.00
7900;DHT22;3995;50.856;4.404;2022-12-20T15:33:16;12.50;75.90
7900;DHT22;3995;50.856;4.404;2022-12-20T15:35:45;12.50;75.70
7900;DHT22;3995;50.856;4.404;2022-12-20T15:38:14;12.50;75.90
7900;DHT22;3995;50.856;4.404;2022-12-20T15:40:46;12.50;75.80
7900;DHT22;3995;50.856;4.404;2022-12-20T15:43:16;12.50;75.90
7900;DHT22;3995;50.856;4.404;2022-12-20T15:45:45;12.50;75.80
7900;DHT22;3995;50.856;4.404;2022-12-20T15:48:15;12.50;75.80
7900;DHT22;3995;50.856;4.404;2022-12-20T15:50:50;12.50;75.80
7900;DHT22;3995;50.856;4.404;2022-12-20T15:53:20;12.50;75.90
7900;DHT22;3995;50.856;4.404;2022-12-20T15:55:50;12.50;75.90
7900;DHT22;3995;50.856;4.404;2022-12-20T15:58:18;12.50;75.90
7900;DHT22;3995;50.856;4.404;2022-12-20T16:00:46;12.50;75.90
7900;DHT22;3995;50.856;4.404;2022-12-20T16:03:16;12.50;75.80
7900;DHT22;3995;50.856;4.404;2022-12-20T16:05:44;12.50;75.90
7900;DHT22;3995;50.856;4.404;2022-12-20T16:08:14;12.50;75.90
7900;DHT22;3995;50.856;4.404;2022-12-20T16:10:43;12.50;75.80
7900;DHT22;3995;50.856;4.404;2022-12-20T16:13:14;12.40;75.60
7900;DHT22;3995;50.856;4.404;2022-12-20T16:15:42;12.50;75.70
7900;DHT22;3995;50.856;4.404;2022-12-20T16:18:09;12.50;75.70
7900;DHT22;3995;50.856;4.404;2022-12-20T16:20:37;12.50;75.70
7900;DHT22;3995;50.856;4.404;2022-12-20T16:23:05;12.40;75.70
7900;DHT22;3995;50.856;4.404;2022-12-20T16:25:39;12.50;75.80
7900;DHT22;3995;50.856;4.404;2022-12-20T16:28:06;12.50;75.90
7900;DHT22;3995;50.856;4.404;2022-12-20T16:30:34;12.50;75.90
7900;DHT22;3995;50.856;4.404;2022-12-20T16:33:01;12.50;75.90
7900;DHT22;3995;50.856;4.404;2022-12-20T16:35:31;12.50;75.80
7900;DHT22;3995;50.856;4.404;2022-12-20T16:37:59;12.50;75.90
7900;DHT22;3995;50.856;4.404;2022-12-20T16:40:28;12.50;75.90
7900;DHT22;3995;50.856;4.404;2022-12-20T16:42:58;12.50;75.90